ADDS METAR Data

Data at: 0509 UTC 19 Jan 2018

METAR for:KGHG (Marshfield Muni, MA, US)
Text:KGHG 190455Z AUTO VRB04KT 10SM CLR M04/M08 A2994 RMK AO2
Temperature: -4.0°C ( 25°F)
Dewpoint: -8.0°C ( 18°F) [RH = 74%]
Pressure (altimeter):29.94 inches Hg (1014.0 mb)
Winds:variable direction winds at 5 MPH (4 knots; 2.1 m/s)
Visibility:10 or more sm (16+ km)
Ceiling:at least 12,000 feet AGL
Clouds:sky clear below 12,000 feet AGL
QC Flag:automated observation with no human augmentation